Appleby, United Kingdom
Current Conditions -  °F | °C
As of 2:20 PM on Saturday 20 Dec 2014 (Local Time) from EGNJ Reporting Station
Few Clouds Few Clouds  
Wind Chill: 42°   Ceiling: Unl
Heat Index: 48°   Visibility: 6mi
Dew Point: 39°   Wind: 17mph
Humidity: 71%   Direction: 270°W
Pressure: 30.18"   Gusts: NA
Location:  53.62°N, 0.57°W
Report Text: EGNJ 201420Z 27015KT 9999 FEW025 09/04 Q1022
Loading
Personal Weather Stations






























Interactive Weather Map New forecast layout! Learn more

10-Day Weather Forecast

Advertisements
Track Severe Weather on mobile